sensor_id;sensor_type;location;lat;lon;timestamp;pressure;altitude;pressure_sealevel;temperature;humidity
3590;BME280;1809;48.470;9.226;2023-11-21T00:00:48;151168.69;;;7.93;100.00
3590;BME280;1809;48.470;9.226;2023-11-21T00:03:13;150831.38;;;7.97;100.00
3590;BME280;1809;48.470;9.226;2023-11-21T00:05:40;150856.41;;;8.07;100.00
3590;BME280;1809;48.470;9.226;2023-11-21T00:08:07;150497.75;;;8.02;100.00
3590;BME280;1809;48.470;9.226;2023-11-21T00:10:32;149798.16;;;7.99;100.00
3590;BME280;1809;48.470;9.226;2023-11-21T00:12:58;149108.66;;;8.00;100.00
3590;BME280;1809;48.470;9.226;2023-11-21T00:15:23;148750.31;;;7.95;100.00
3590;BME280;1809;48.470;9.226;2023-11-21T00:17:49;148399.53;;;7.93;100.00
3590;BME280;1809;48.470;9.226;2023-11-21T00:20:14;148394.56;;;7.91;100.00
3590;BME280;1809;48.470;9.226;2023-11-21T00:22:40;148394.56;;;7.91;100.00
3590;BME280;1809;48.470;9.226;2023-11-21T00:25:06;148750.31;;;7.95;100.00
3590;BME280;1809;48.470;9.226;2023-11-21T00:27:34;148745.41;;;7.93;100.00
3590;BME280;1809;48.470;9.226;2023-11-21T00:30:00;148746.66;;;7.93;100.00
3590;BME280;1809;48.470;9.226;2023-11-21T00:32:25;149116.09;;;8.03;100.00
3590;BME280;1809;48.470;9.226;2023-11-21T00:34:50;148061.06;;;7.96;100.00
3590;BME280;1809;48.470;9.226;2023-11-21T00:37:16;147712.78;;;7.95;100.00
3590;BME280;1809;48.470;9.226;2023-11-21T00:39:41;147374.34;;;7.98;100.00
3590;BME280;1809;48.470;9.226;2023-11-21T00:42:07;147028.59;;;7.98;100.00
3590;BME280;1809;48.470;9.226;2023-11-21T00:44:33;146676.78;;;7.95;100.00
3590;BME280;1809;48.470;9.226;2023-11-21T00:46:59;146337.16;;;7.98;100.00
3590;BME280;1809;48.470;9.226;2023-11-21T00:49:24;146345.66;;;8.01;100.00
3590;BME280;1809;48.470;9.226;2023-11-21T00:51:50;145658.00;;;8.03;100.00
3590;BME280;1809;48.470;9.226;2023-11-21T00:54:15;145658.00;;;8.03;100.00
3590;BME280;1809;48.470;9.226;2023-11-21T00:56:42;145331.66;;;8.11;100.00
3590;BME280;1809;48.470;9.226;2023-11-21T00:59:08;143615.69;;;8.16;100.00
3590;BME280;1809;48.470;9.226;2023-11-21T01:01:33;141200.22;;;8.17;100.00
3590;BME280;1809;48.470;9.226;2023-11-21T01:03:58;139466.09;;;8.13;100.00
3590;BME280;1809;48.470;9.226;2023-11-21T01:06:24;138436.66;;;8.16;100.00
3590;BME280;1809;48.470;9.226;2023-11-21T01:08:49;137426.84;;;8.27;100.00
3590;BME280;1809;48.470;9.226;2023-11-21T01:11:15;133648.53;;;8.34;100.00
3590;BME280;1809;48.470;9.226;2023-11-21T01:13:40;130893.47;;;8.34;100.00
3590;BME280;1809;48.470;9.226;2023-11-21T01:16:06;127447.03;;;8.32;100.00
3590;BME280;1809;48.470;9.226;2023-11-21T01:18:32;122665.22;;;8.48;100.00
3590;BME280;1809;48.470;9.226;2023-11-21T01:20:58;117841.69;;;8.40;100.00
3590;BME280;1809;48.470;9.226;2023-11-21T01:23:25;115775.78;;;8.36;100.00
3590;BME280;1809;48.470;9.226;2023-11-21T01:25:52;115447.19;;;8.43;100.00
3590;BME280;1809;48.470;9.226;2023-11-21T01:28:17;112711.28;;;8.47;100.00
3590;BME280;1809;48.470;9.226;2023-11-21T01:30:43;108251.22;;;8.42;100.00
3590;BME280;1809;48.470;9.226;2023-11-21T01:33:09;103812.03;;;8.46;100.00
3590;BME280;1809;48.470;9.226;2023-11-21T01:35:35;99381.97;;;8.53;100.00
3590;BME280;1809;48.470;9.226;2023-11-21T01:38:01;95955.31;;;8.44;100.00
3590;BME280;1809;48.470;9.226;2023-11-21T01:40:26;95606.47;;;8.39;100.00
3590;BME280;1809;48.470;9.226;2023-11-21T01:42:53;96278.16;;;8.32;100.00
3590;BME280;1809;48.470;9.226;2023-11-21T01:45:18;94591.50;;;8.44;100.00
3590;BME280;1809;48.470;9.226;2023-11-21T01:47:44;93215.97;;;8.36;100.00
3590;BME280;1809;48.470;9.226;2023-11-21T01:50:13;92867.66;;;8.31;100.00
3590;BME280;1809;48.470;9.226;2023-11-21T01:52:39;94905.88;;;8.27;100.00
3590;BME280;1809;48.470;9.226;2023-11-21T01:55:07;97292.47;;;8.27;100.00
3590;BME280;1809;48.470;9.226;2023-11-21T01:57:33;98317.44;;;8.28;100.00
3590;BME280;1809;48.470;9.226;2023-11-21T02:00:02;99671.69;;;8.21;100.00
3590;BME280;1809;48.470;9.226;2023-11-21T02:02:41;100676.53;;;8.09;100.00
3590;BME280;1809;48.470;9.226;2023-11-21T02:05:06;102734.25;;;8.15;100.00
3590;BME280;1809;48.470;9.226;2023-11-21T02:07:34;103740.19;;;8.04;100.00
3590;BME280;1809;48.470;9.226;2023-11-21T02:10:00;106137.22;;;8.07;100.00
3590;BME280;1809;48.470;9.226;2023-11-21T02:12:25;107162.81;;;8.07;100.00
3590;BME280;1809;48.470;9.226;2023-11-21T02:14:51;107856.53;;;8.13;100.00
3590;BME280;1809;48.470;9.226;2023-11-21T02:17:17;107858.28;;;8.13;100.00
3590;BME280;1809;48.470;9.226;2023-11-21T02:19:43;108554.03;;;8.20;100.00
3590;BME280;1809;48.470;9.226;2023-11-21T02:22:10;107531.34;;;8.22;100.00
3590;BME280;1809;48.470;9.226;2023-11-21T02:24:37;106524.75;;;8.33;100.00
3590;BME280;1809;48.470;9.226;2023-11-21T02:27:02;104471.59;;;8.32;100.00
3590;BME280;1809;48.470;9.226;2023-11-21T02:29:27;103775.25;;;8.25;100.00
3590;BME280;1809;48.470;9.226;2023-11-21T02:31:54;102747.78;;;8.23;100.00
3590;BME280;1809;48.470;9.226;2023-11-21T02:34:21;102047.88;;;8.13;100.00
3590;BME280;1809;48.470;9.226;2023-11-21T02:36:47;102710.56;;;8.01;100.00
3590;BME280;1809;48.470;9.226;2023-11-21T02:39:15;105096.31;;;7.98;100.00
3590;BME280;1809;48.470;9.226;2023-11-21T02:41:41;106803.34;;;7.97;100.00
3590;BME280;1809;48.470;9.226;2023-11-21T02:44:07;108184.28;;;8.04;100.00
3590;BME280;1809;48.470;9.226;2023-11-21T02:46:36;108529.88;;;8.06;100.00
3590;BME280;1809;48.470;9.226;2023-11-21T02:49:05;108895.28;;;8.20;100.00
3590;BME280;1809;48.470;9.226;2023-11-21T02:51:35;106508.03;;;8.24;100.00
3590;BME280;1809;48.470;9.226;2023-11-21T02:54:01;105137.88;;;8.22;100.00
3590;BME280;1809;48.470;9.226;2023-11-21T02:56:31;104134.97;;;8.35;100.00
3590;BME280;1809;48.470;9.226;2023-11-21T02:58:59;100026.16;;;8.29;100.00
3590;BME280;1809;48.470;9.226;2023-11-21T03:01:25;99354.16;;;8.36;100.00
3590;BME280;1809;48.470;9.226;2023-11-21T03:03:51;98318.22;;;8.28;100.00
3590;BME280;1809;48.470;9.226;2023-11-21T03:06:19;98670.78;;;8.35;100.00
3590;BME280;1809;48.470;9.226;2023-11-21T03:08:45;99685.66;;;8.30;100.00
3590;BME280;1809;48.470;9.226;2023-11-21T03:11:11;101396.78;;;8.32;100.00
3590;BME280;1809;48.470;9.226;2023-11-21T03:13:38;101750.88;;;8.40;100.00
3590;BME280;1809;48.470;9.226;2023-11-21T03:16:04;101742.50;;;8.35;100.00
3590;BME280;1809;48.470;9.226;2023-11-21T03:18:31;102431.56;;;8.38;100.00
3590;BME280;1809;48.470;9.226;2023-11-21T03:20:57;99722.56;;;8.52;100.00
3590;BME280;1809;48.470;9.226;2023-11-21T03:23:22;96990.50;;;8.51;100.00
3590;BME280;1809;48.470;9.226;2023-11-21T03:25:48;95626.13;;;8.51;100.00
3590;BME280;1809;48.470;9.226;2023-11-21T03:28:14;94947.22;;;8.53;100.00
3590;BME280;1809;48.470;9.226;2023-11-21T03:30:39;93239.69;;;8.51;100.00
3590;BME280;1809;48.470;9.226;2023-11-21T03:33:04;92559.69;;;8.52;100.00
3590;BME280;1809;48.470;9.226;2023-11-21T03:35:29;91887.34;;;8.58;100.00
3590;BME280;1809;48.470;9.226;2023-11-21T03:37:55;88487.75;;;8.62;100.00
3590;BME280;1809;48.470;9.226;2023-11-21T03:40:21;86450.28;;;8.65;100.00
3590;BME280;1809;48.470;9.226;2023-11-21T03:42:47;84419.31;;;8.73;100.00
3590;BME280;1809;48.470;9.226;2023-11-21T03:45:12;82031.06;;;8.66;100.00
3590;BME280;1809;48.470;9.226;2023-11-21T03:47:40;82711.38;;;8.67;100.00
3590;BME280;1809;48.470;9.226;2023-11-21T03:50:06;85763.59;;;8.61;100.00
3590;BME280;1809;48.470;9.226;2023-11-21T03:52:31;89520.84;;;8.71;100.00
3590;BME280;1809;48.470;9.226;2023-11-21T03:54:57;90869.09;;;8.61;100.00
3590;BME280;1809;48.470;9.226;2023-11-21T03:57:22;92577.94;;;8.64;100.00
3590;BME280;1809;48.470;9.226;2023-11-21T03:59:47;92575.66;;;8.63;100.00
3590;BME280;1809;48.470;9.226;2023-11-21T04:02:13;94953.47;;;8.57;100.00
3590;BME280;1809;48.470;9.226;2023-11-21T04:04:38;96988.13;;;8.50;100.00
3590;BME280;1809;48.470;9.226;2023-11-21T04:07:04;99372.97;;;8.47;100.00
3590;BME280;1809;48.470;9.226;2023-11-21T04:09:30;103124.19;;;8.44;100.00
3590;BME280;1809;48.470;9.226;2023-11-21T04:11:55;105524.06;;;8.48;100.00
3590;BME280;1809;48.470;9.226;2023-11-21T04:14:21;106544.03;;;8.44;100.00
3590;BME280;1809;48.470;9.226;2023-11-21T04:16:46;108597.94;;;8.45;100.00
3590;BME280;1809;48.470;9.226;2023-11-21T04:19:11;109294.25;;;8.51;100.00
3590;BME280;1809;48.470;9.226;2023-11-21T04:21:40;109634.81;;;8.50;100.00
3590;BME280;1809;48.470;9.226;2023-11-21T04:24:06;111006.53;;;8.51;100.00
3590;BME280;1809;48.470;9.226;2023-11-21T04:26:31;110649.44;;;8.43;100.00
3590;BME280;1809;48.470;9.226;2023-11-21T04:28:57;110998.28;;;8.47;100.00
3590;BME280;1809;48.470;9.226;2023-11-21T04:31:22;110645.75;;;8.41;100.00
3590;BME280;1809;48.470;9.226;2023-11-21T04:33:47;112010.28;;;8.38;100.00
3590;BME280;1809;48.470;9.226;2023-11-21T04:36:13;115085.25;;;8.33;100.00
3590;BME280;1809;48.470;9.226;2023-11-21T04:38:38;117478.19;;;8.29;100.00
3590;BME280;1809;48.470;9.226;2023-11-21T04:41:03;119178.06;;;8.21;100.00
3590;BME280;1809;48.470;9.226;2023-11-21T04:43:29;121226.69;;;8.16;100.00
3590;BME280;1809;48.470;9.226;2023-11-21T04:45:54;123969.31;;;8.13;100.00
3590;BME280;1809;48.470;9.226;2023-11-21T04:48:20;125683.56;;;8.11;100.00
3590;BME280;1809;48.470;9.226;2023-11-21T04:50:45;127744.53;;;8.10;100.00
3590;BME280;1809;48.470;9.226;2023-11-21T04:53:11;129464.69;;;8.10;100.00
3590;BME280;1809;48.470;9.226;2023-11-21T04:55:38;130497.16;;;8.10;100.00
3590;BME280;1809;48.470;9.226;2023-11-21T04:58:04;131529.94;;;8.10;100.00
3590;BME280;1809;48.470;9.226;2023-11-21T05:00:30;132216.47;;;8.09;100.00
3590;BME280;1809;48.470;9.226;2023-11-21T05:02:55;132558.66;;;8.08;100.00
3590;BME280;1809;48.470;9.226;2023-11-21T05:05:20;132903.06;;;8.08;100.00
3590;BME280;1809;48.470;9.226;2023-11-21T05:07:45;133249.75;;;8.09;100.00
3590;BME280;1809;48.470;9.226;2023-11-21T05:10:11;134290.00;;;8.12;100.00
3590;BME280;1809;48.470;9.226;2023-11-21T05:12:37;135338.50;;;8.19;100.00
3590;BME280;1809;48.470;9.226;2023-11-21T05:15:07;134981.47;;;8.13;100.00
3590;BME280;1809;48.470;9.226;2023-11-21T05:17:39;135668.63;;;8.12;100.00
3590;BME280;1809;48.470;9.226;2023-11-21T05:20:08;135658.50;;;8.07;100.00
3590;BME280;1809;48.470;9.226;2023-11-21T05:22:35;136004.34;;;8.08;100.00
3590;BME280;1809;48.470;9.226;2023-11-21T05:25:02;136347.94;;;8.07;100.00
3590;BME280;1809;48.470;9.226;2023-11-21T05:27:31;136349.09;;;8.08;100.00
3590;BME280;1809;48.470;9.226;2023-11-21T05:29:57;136696.16;;;8.09;100.00
3590;BME280;1809;48.470;9.226;2023-11-21T05:32:25;137385.84;;;8.09;100.00
3590;BME280;1809;48.470;9.226;2023-11-21T05:34:51;138077.94;;;8.10;100.00
3590;BME280;1809;48.470;9.226;2023-11-21T05:37:17;138435.56;;;8.16;100.00
3590;BME280;1809;48.470;9.226;2023-11-21T05:39:42;138775.94;;;8.13;100.00
3590;BME280;1809;48.470;9.226;2023-11-21T05:42:08;138786.31;;;8.18;100.00
3590;BME280;1809;48.470;9.226;2023-11-21T05:44:36;138780.59;;;8.16;100.00
3590;BME280;1809;48.470;9.226;2023-11-21T05:47:01;139116.41;;;8.11;100.00
3590;BME280;1809;48.470;9.226;2023-11-21T05:49:26;139112.91;;;8.10;100.00
3590;BME280;1809;48.470;9.226;2023-11-21T05:51:53;139110.66;;;8.09;100.00
3590;BME280;1809;48.470;9.226;2023-11-21T05:54:19;139106.00;;;8.07;100.00
3590;BME280;1809;48.470;9.226;2023-11-21T05:56:44;139115.25;;;8.11;100.00
3590;BME280;1809;48.470;9.226;2023-11-21T05:59:10;139461.47;;;8.11;100.00
3590;BME280;1809;48.470;9.226;2023-11-21T06:01:35;139462.63;;;8.12;100.00
3590;BME280;1809;48.470;9.226;2023-11-21T06:04:04;139109.47;;;8.08;100.00
3590;BME280;1809;48.470;9.226;2023-11-21T06:06:30;139102.56;;;8.05;100.00
3590;BME280;1809;48.470;9.226;2023-11-21T06:08:56;139775.25;;;7.98;100.00
3590;BME280;1809;48.470;9.226;2023-11-21T06:11:22;139782.22;;;8.01;100.00
3590;BME280;1809;48.470;9.226;2023-11-21T06:13:47;139772.97;;;7.97;100.00
3590;BME280;1809;48.470;9.226;2023-11-21T06:16:13;140120.31;;;7.98;100.00
3590;BME280;1809;48.470;9.226;2023-11-21T06:18:41;140459.59;;;7.95;100.00
3590;BME280;1809;48.470;9.226;2023-11-21T06:21:09;141146.38;;;7.94;100.00
3590;BME280;1809;48.470;9.226;2023-11-21T06:23:34;141836.75;;;7.94;100.00
3590;BME280;1809;48.470;9.226;2023-11-21T06:26:00;142539.06;;;7.99;100.00
3590;BME280;1809;48.470;9.226;2023-11-21T06:28:25;142882.00;;;7.98;100.00
3590;BME280;1809;48.470;9.226;2023-11-21T06:30:50;143228.56;;;7.98;100.00
3590;BME280;1809;48.470;9.226;2023-11-21T06:33:16;143588.28;;;8.04;100.00
3590;BME280;1809;48.470;9.226;2023-11-21T06:35:41;143583.53;;;8.02;100.00
3590;BME280;1809;48.470;9.226;2023-11-21T06:38:06;143579.94;;;8.01;100.00
3590;BME280;1809;48.470;9.226;2023-11-21T06:40:32;143582.31;;;8.02;100.00
3590;BME280;1809;48.470;9.226;2023-11-21T06:42:58;143572.78;;;7.98;100.00
3590;BME280;1809;48.470;9.226;2023-11-21T06:45:24;143599.03;;;8.09;100.00
3590;BME280;1809;48.470;9.226;2023-11-21T06:47:49;143248.78;;;8.07;100.00
3590;BME280;1809;48.470;9.226;2023-11-21T06:50:14;142910.47;;;8.10;100.00
3590;BME280;1809;48.470;9.226;2023-11-21T06:52:40;141862.63;;;8.05;100.00
3590;BME280;1809;48.470;9.226;2023-11-21T06:55:06;141860.25;;;8.04;100.00
3590;BME280;1809;48.470;9.226;2023-11-21T06:57:33;141868.50;;;8.07;100.00
3590;BME280;1809;48.470;9.226;2023-11-21T06:59:59;141873.19;;;8.09;100.00
3590;BME280;1809;48.470;9.226;2023-11-21T07:02:24;141902.63;;;8.22;100.00
3590;BME280;1809;48.470;9.226;2023-11-21T07:04:50;141564.31;;;8.25;100.00
3590;BME280;1809;48.470;9.226;2023-11-21T07:07:15;141235.41;;;8.32;100.00
3590;BME280;1809;48.470;9.226;2023-11-21T07:09:40;140901.78;;;8.37;100.00
3590;BME280;1809;48.470;9.226;2023-11-21T07:12:06;140252.94;;;8.55;100.00
3590;BME280;1809;48.470;9.226;2023-11-21T07:14:33;137852.97;;;8.63;100.00
3590;BME280;1809;48.470;9.226;2023-11-21T07:16:59;135763.13;;;8.54;100.00
3590;BME280;1809;48.470;9.226;2023-11-21T07:19:24;135800.28;;;8.71;100.00
3590;BME280;1809;48.470;9.226;2023-11-21T07:21:50;133417.63;;;8.86;100.00
3590;BME280;1809;48.470;9.226;2023-11-21T07:24:18;127892.66;;;8.81;100.00
3590;BME280;1809;48.470;9.226;2023-11-21T07:26:43;123428.06;;;8.85;100.00
3590;BME280;1809;48.470;9.226;2023-11-21T07:29:09;120662.69;;;8.78;100.00
3590;BME280;1809;48.470;9.226;2023-11-21T07:31:34;121019.28;;;8.84;100.00
3590;BME280;1809;48.470;9.226;2023-11-21T07:34:00;122029.41;;;8.74;100.00
3590;BME280;1809;48.470;9.226;2023-11-21T07:36:26;123752.59;;;8.76;100.00
3590;BME280;1809;48.470;9.226;2023-11-21T07:38:51;125493.38;;;8.86;100.00
3590;BME280;1809;48.470;9.226;2023-11-21T07:41:17;125499.59;;;8.89;100.00
3590;BME280;1809;48.470;9.226;2023-11-21T07:43:44;125521.41;;;8.99;100.00
3590;BME280;1809;48.470;9.226;2023-11-21T07:46:09;124842.28;;;9.04;100.00
3590;BME280;1809;48.470;9.226;2023-11-21T07:48:35;124504.28;;;9.07;100.00
3590;BME280;1809;48.470;9.226;2023-11-21T07:51:02;124865.03;;;9.15;100.00
3590;BME280;1809;48.470;9.226;2023-11-21T07:53:29;124194.03;;;9.24;100.00
3590;BME280;1809;48.470;9.226;2023-11-21T07:55:58;122135.28;;;9.27;100.00
3590;BME280;1809;48.470;9.226;2023-11-21T07:58:23;121106.28;;;9.28;100.00
3590;BME280;1809;48.470;9.226;2023-11-21T08:00:52;119035.31;;;9.24;100.00
3590;BME280;1809;48.470;9.226;2023-11-21T08:03:17;118695.50;;;9.26;100.00
3590;BME280;1809;48.470;9.226;2023-11-21T08:05:43;117334.50;;;9.33;100.00
3590;BME280;1809;48.470;9.226;2023-11-21T08:08:08;114241.44;;;9.32;100.00
3590;BME280;1809;48.470;9.226;2023-11-21T08:10:33;112182.22;;;9.32;100.00
3590;BME280;1809;48.470;9.226;2023-11-21T08:12:59;112195.16;;;9.39;100.00
3590;BME280;1809;48.470;9.226;2023-11-21T08:15:24;109810.25;;;9.48;100.00
3590;BME280;1809;48.470;9.226;2023-11-21T08:17:50;105000.84;;;9.42;100.00
3590;BME280;1809;48.470;9.226;2023-11-21T08:20:15;102590.16;;;9.33;100.00
3590;BME280;1809;48.470;9.226;2023-11-21T08:22:44;103621.06;;;9.36;100.00
3590;BME280;1809;48.470;9.226;2023-11-21T08:25:10;105327.72;;;9.33;100.00
3590;BME280;1809;48.470;9.226;2023-11-21T08:27:35;107374.09;;;9.28;100.00
3590;BME280;1809;48.470;9.226;2023-11-21T08:30:02;107726.47;;;9.33;100.00
3590;BME280;1809;48.470;9.226;2023-11-21T08:32:28;109798.50;;;9.42;100.00
3590;BME280;1809;48.470;9.226;2023-11-21T08:34:55;107410.34;;;9.48;100.00
3590;BME280;1809;48.470;9.226;2023-11-21T08:37:20;102951.81;;;9.45;100.00
3590;BME280;1809;48.470;9.226;2023-11-21T08:39:47;102629.81;;;9.57;100.00
3590;BME280;1809;48.470;9.226;2023-11-21T08:42:13;100241.94;;;9.61;100.00
3590;BME280;1809;48.470;9.226;2023-11-21T08:44:39;97877.00;;;9.80;100.00
3590;BME280;1809;48.470;9.226;2023-11-21T08:47:05;92075.28;;;9.84;100.00
3590;BME280;1809;48.470;9.226;2023-11-21T08:49:30;84220.56;;;9.76;100.00
3590;BME280;1809;48.470;9.226;2023-11-21T08:51:55;83202.34;;;9.79;100.00
3590;BME280;1809;48.470;9.226;2023-11-21T08:54:22;84567.44;;;9.81;100.00
3590;BME280;1809;48.470;9.226;2023-11-21T08:56:48;86620.50;;;9.87;100.00
3590;BME280;1809;48.470;9.226;2023-11-21T08:59:15;87990.81;;;9.91;100.00
3590;BME280;1809;48.470;9.226;2023-11-21T09:01:40;84938.69;;;10.03;100.00
3590;BME280;1809;48.470;9.226;2023-11-21T09:04:06;80848.00;;;10.00;100.00
3590;BME280;1809;48.470;9.226;2023-11-21T09:06:31;79835.47;;;10.07;100.00
3590;BME280;1809;48.470;9.226;2023-11-21T09:08:57;71672.50;;;10.03;100.00
3590;BME280;1809;48.470;9.226;2023-11-21T09:11:22;71317.91;;;9.90;100.00
3590;BME280;1809;48.470;9.226;2023-11-21T09:13:50;78466.06;;;10.00;100.00
3590;BME280;1809;48.470;9.226;2023-11-21T09:16:16;77777.53;;;9.94;100.00
3590;BME280;1809;48.470;9.226;2023-11-21T09:18:41;76766.31;;;10.01;100.00
3590;BME280;1809;48.470;9.226;2023-11-21T09:21:07;79822.41;;;9.97;100.00
3590;BME280;1809;48.470;9.226;2023-11-21T09:23:32;79499.03;;;10.10;100.00
3590;BME280;1809;48.470;9.226;2023-11-21T09:25:57;73370.41;;;10.03;100.00
3590;BME280;1809;48.470;9.226;2023-11-21T09:28:25;72349.22;;;10.01;100.00
3590;BME280;1809;48.470;9.226;2023-11-21T09:30:52;72351.56;;;10.03;100.00
3590;BME280;1809;48.470;9.226;2023-11-21T09:33:18;71667.81;;;9.99;100.00
3590;BME280;1809;48.470;9.226;2023-11-21T09:35:43;76088.25;;;10.02;100.00
3590;BME280;1809;48.470;9.226;2023-11-21T09:38:09;77123.97;;;10.15;100.00
3590;BME280;1809;48.470;9.226;2023-11-21T09:40:36;71001.66;;;10.10;100.00
3590;BME280;1809;48.470;9.226;2023-11-21T09:46:33;78104.22;;;9.83;100.00
3590;BME280;1809;48.470;9.226;2023-11-21T09:49:00;89372.88;;;10.03;100.00
3590;BME280;1809;48.470;9.226;2023-11-21T09:51:27;87346.72;;;10.18;100.00
3590;BME280;1809;48.470;9.226;2023-11-21T09:53:56;81558.91;;;10.23;100.00
3590;BME280;1809;48.470;9.226;2023-11-21T09:56:24;78514.19;;;10.38;100.00
3590;BME280;1809;48.470;9.226;2023-11-21T09:58:53;71388.91;;;10.51;100.00
3590;BME280;1809;48.470;9.226;2023-11-21T10:01:19;60553.69;;;10.71;100.00
3590;BME280;1809;48.470;9.226;2023-11-21T10:03:46;48379.44;;;10.70;100.00
3590;BME280;1809;48.470;9.226;2023-11-21T10:06:13;44680.63;;;10.88;100.00
3590;BME280;1809;48.470;9.226;2023-11-21T10:08:41;30541.66;;;10.81;100.00
3590;BME280;1809;48.470;9.226;2023-11-21T10:11:08;23162.13;;;10.82;100.00
3590;BME280;1809;48.470;9.226;2023-11-21T10:13:37;21156.41;;;10.95;100.00
3590;BME280;1809;48.470;9.226;2023-11-21T10:16:03;9453.97;;;10.96;100.00
3590;BME280;1809;48.470;9.226;2023-11-21T10:18:32;3784.59;;;10.93;100.00
3590;BME280;1809;48.470;9.226;2023-11-21T10:20:59;3449.53;;;10.49;100.00
3590;BME280;1809;48.470;9.226;2023-11-21T10:23:25;30181.78;;;10.31;100.00
3590;BME280;1809;48.470;9.226;2023-11-21T10:25:51;55755.81;;;10.06;100.00
3590;BME280;1809;48.470;9.226;2023-11-21T10:28:17;76073.94;;;9.91;100.00
3590;BME280;1809;48.470;9.226;2023-11-21T10:30:42;90717.34;;;9.89;100.00
3590;BME280;1809;48.470;9.226;2023-11-21T10:33:09;100263.31;;;9.74;100.00
3590;BME280;1809;48.470;9.226;2023-11-21T10:35:42;105752.81;;;9.81;100.00
3590;BME280;1809;48.470;9.226;2023-11-21T10:38:08;109871.78;;;9.83;100.00
3590;BME280;1809;48.470;9.226;2023-11-21T10:40:38;112254.34;;;9.71;100.00
3590;BME280;1809;48.470;9.226;2023-11-21T10:43:10;115021.03;;;9.82;100.00
3590;BME280;1809;48.470;9.226;2023-11-21T10:45:39;117417.78;;;9.77;100.00
3590;BME280;1809;48.470;9.226;2023-11-21T10:48:05;120523.84;;;9.82;100.00
3590;BME280;1809;48.470;9.226;2023-11-21T10:50:36;123967.50;;;9.82;100.00
3590;BME280;1809;48.470;9.226;2023-11-21T10:53:03;125983.25;;;9.56;100.00
3590;BME280;1809;48.470;9.226;2023-11-21T10:55:29;128066.19;;;9.63;100.00
3590;BME280;1809;48.470;9.226;2023-11-21T10:57:58;129436.16;;;9.59;100.00
3590;BME280;1809;48.470;9.226;2023-11-21T11:00:24;132210.97;;;9.65;100.00
3590;BME280;1809;48.470;9.226;2023-11-21T11:02:53;132910.34;;;9.69;100.00
3590;BME280;1809;48.470;9.226;2023-11-21T11:05:23;132947.75;;;9.87;100.00
3590;BME280;1809;48.470;9.226;2023-11-21T11:08:00;131853.75;;;9.60;100.00
3590;BME280;1809;48.470;9.226;2023-11-21T11:10:28;133249.06;;;9.66;100.00
3590;BME280;1809;48.470;9.226;2023-11-21T11:12:57;133594.44;;;9.66;100.00
3590;BME280;1809;48.470;9.226;2023-11-21T11:15:24;133583.41;;;9.61;100.00
3590;BME280;1809;48.470;9.226;2023-11-21T11:17:49;134278.63;;;9.63;100.00
3590;BME280;1809;48.470;9.226;2023-11-21T11:20:16;133957.56;;;9.74;100.00
3590;BME280;1809;48.470;9.226;2023-11-21T11:31:12;126345.63;;;9.65;100.00
3590;BME280;1809;48.470;9.226;2023-11-21T11:34:00;128115.94;;;9.87;100.00
3590;BME280;1809;48.470;9.226;2023-11-21T11:36:41;127820.66;;;10.11;100.00
3590;BME280;1809;48.470;9.226;2023-11-21T11:41:53;124332.59;;;9.92;100.00
3590;BME280;1809;48.470;9.226;2023-11-21T11:47:34;120272.97;;;10.29;100.00
3590;BME280;1809;48.470;9.226;2023-11-21T11:50:09;119985.94;;;10.58;100.00
3590;BME280;1809;48.470;9.226;2023-11-21T11:52:51;108285.56;;;10.56;100.00
3590;BME280;1809;48.470;9.226;2023-11-21T11:55:19;101422.47;;;10.55;100.00
3590;BME280;1809;48.470;9.226;2023-11-21T11:57:52;98679.28;;;10.53;100.00
3590;BME280;1809;48.470;9.226;2023-11-21T12:00:22;90795.50;;;10.42;100.00
3590;BME280;1809;48.470;9.226;2023-11-21T12:02:58;91438.28;;;10.15;100.00
3590;BME280;1809;48.470;9.226;2023-11-21T12:05:25;96871.97;;;9.93;100.00
3590;BME280;1809;48.470;9.226;2023-11-21T12:07:57;108832.59;;;9.77;100.00
3590;BME280;1809;48.470;9.226;2023-11-21T12:10:33;118763.13;;;9.61;100.00
3590;BME280;1809;48.470;9.226;2023-11-21T12:13:06;125980.13;;;9.55;100.00
3590;BME280;1809;48.470;9.226;2023-11-21T12:15:33;130764.25;;;9.35;100.00
3590;BME280;1809;48.470;9.226;2023-11-21T12:18:00;134542.75;;;9.27;100.00
3590;BME280;1809;48.470;9.226;2023-11-21T12:20:27;137636.59;;;9.20;100.00
3590;BME280;1809;48.470;9.226;2023-11-21T12:22:53;140700.97;;;9.00;100.00
3590;BME280;1809;48.470;9.226;2023-11-21T12:25:24;143455.81;;;8.95;100.00
3590;BME280;1809;48.470;9.226;2023-11-21T12:27:52;145529.66;;;8.94;100.00
3590;BME280;1809;48.470;9.226;2023-11-21T12:30:22;147621.78;;;9.00;100.00
3590;BME280;1809;48.470;9.226;2023-11-21T12:32:49;149011.31;;;9.01;100.00
3590;BME280;1809;48.470;9.226;2023-11-21T12:35:16;150760.59;;;9.08;100.00
3590;BME280;1809;48.470;9.226;2023-11-21T12:37:45;151075.97;;;8.95;100.00
3590;BME280;1809;48.470;9.226;2023-11-21T12:40:12;151373.63;;;8.76;100.00
3590;BME280;1809;48.470;9.226;2023-11-21T12:42:41;152426.28;;;8.81;100.00
3590;BME280;1809;48.470;9.226;2023-11-21T12:47:43;153819.88;;;8.83;100.00
3590;BME280;1809;48.470;9.226;2023-11-21T12:50:10;154538.09;;;8.93;100.00
3590;BME280;1809;48.470;9.226;2023-11-21T12:52:50;155610.31;;;9.05;100.00
3590;BME280;1809;48.470;9.226;2023-11-21T12:55:22;155621.91;;;9.09;100.00
3590;BME280;1809;48.470;9.226;2023-11-21T12:57:53;155641.34;;;9.17;100.00
3590;BME280;1809;48.470;9.226;2023-11-21T13:00:31;154234.66;;;9.10;100.00
3590;BME280;1809;48.470;9.226;2023-11-21T13:02:58;153513.81;;;8.99;100.00
3590;BME280;1809;48.470;9.226;2023-11-21T13:05:28;153131.25;;;8.85;100.00
3590;BME280;1809;48.470;9.226;2023-11-21T13:07:59;153489.59;;;8.90;100.00
3590;BME280;1809;48.470;9.226;2023-11-21T13:10:28;153821.16;;;8.84;100.00
3590;BME280;1809;48.470;9.226;2023-11-21T13:12:59;153781.53;;;8.68;100.00
3590;BME280;1809;48.470;9.226;2023-11-21T13:15:29;154502.13;;;8.79;100.00
3590;BME280;1809;48.470;9.226;2023-11-21T13:17:57;155201.22;;;8.81;100.00
3590;BME280;1809;48.470;9.226;2023-11-21T13:20:23;156265.75;;;8.90;100.00
3590;BME280;1809;48.470;9.226;2023-11-21T13:25:19;156957.53;;;8.89;100.00
3590;BME280;1809;48.470;9.226;2023-11-21T13:27:45;156947.06;;;8.85;100.00
3590;BME280;1809;48.470;9.226;2023-11-21T13:30:14;156941.84;;;8.83;100.00
3590;BME280;1809;48.470;9.226;2023-11-21T13:32:42;156941.84;;;8.83;100.00